Time;durP1;ratioP1;P1;durP2;ratioP2;P2;SDS_P1;SDS_P2;PMS_P1;PMS_P2;Temp;Humidity;BMP_temperature;BMP_pressure;BME280_temperature;BME280_humidity;BME280_pressure;Samples;Min_cycle;Max_cycle;Signal;HPM_P1;HPM_P2
2021/10/05 00:01:55;;;;;;;5.27;4.33;;;15.80;99.90;;;;;;5096117;28;20461;-71
2021/10/05 00:04:22;;;;;;;4.70;3.97;;;15.80;99.90;;;;;;5096009;28;20465;-71
2021/10/05 00:06:50;;;;;;;7.63;5.13;;;15.80;99.90;;;;;;5096341;28;20468;-71
2021/10/05 00:09:17;;;;;;;5.00;3.93;;;15.80;99.90;;;;;;5096213;28;20465;-71
2021/10/05 00:11:48;;;;;;;6.90;4.50;;;15.80;99.90;;;;;;5096125;28;20509;-71
2021/10/05 00:14:15;;;;;;;11.83;4.07;;;15.80;99.90;;;;;;5096174;28;20758;-71
2021/10/05 00:16:41;;;;;;;7.53;4.90;;;15.80;99.90;;;;;;5095963;28;20470;-71
2021/10/05 00:19:08;;;;;;;10.27;4.43;;;15.80;99.90;;;;;;5096048;28;20465;-71
2021/10/05 00:21:35;;;;;;;8.33;5.50;;;15.80;99.90;;;;;;5095614;28;20457;-71
2021/10/05 00:24:02;;;;;;;5.90;5.20;;;15.80;99.90;;;;;;5095983;28;20438;-70
2021/10/05 00:26:28;;;;;;;7.20;5.20;;;15.80;99.90;;;;;;5095380;28;20901;-70
2021/10/05 00:28:57;;;;;;;7.57;5.37;;;15.80;99.90;;;;;;5095736;28;20507;-70
2021/10/05 00:31:23;;;;;;;7.00;5.63;;;15.80;99.90;;;;;;5095611;28;20812;-70
2021/10/05 00:33:50;;;;;;;6.37;5.27;;;15.70;99.90;;;;;;5095870;28;20465;-70
2021/10/05 00:36:17;;;;;;;13.40;5.40;;;15.70;99.90;;;;;;5095447;28;20884;-70
2021/10/05 00:38:43;;;;;;;6.43;5.40;;;15.70;99.90;;;;;;5095577;28;20465;-70
2021/10/05 00:41:10;;;;;;;7.60;6.10;;;15.70;99.90;;;;;;5095652;28;20454;-70
2021/10/05 00:43:37;;;;;;;6.53;5.70;;;15.70;99.90;;;;;;5095791;28;20463;-70
2021/10/05 00:46:05;;;;;;;7.23;5.77;;;15.70;99.90;;;;;;5095499;28;20461;-70
2021/10/05 00:48:32;;;;;;;9.77;5.57;;;15.70;99.90;;;;;;5095411;28;20868;-70
2021/10/05 00:51:00;;;;;;;6.30;5.50;;;15.70;99.90;;;;;;5094503;28;20485;-70
2021/10/05 00:53:27;;;;;;;11.03;5.83;;;15.70;99.90;;;;;;5095013;28;20460;-70
2021/10/05 00:55:55;;;;;;;7.33;5.00;;;15.70;99.90;;;;;;5095264;28;20450;-70
2021/10/05 00:58:21;;;;;;;9.20;6.13;;;15.70;99.90;;;;;;5095338;28;20519;-70
2021/10/05 01:00:48;;;;;;;7.27;5.67;;;15.60;99.90;;;;;;5095205;28;20445;-70
2021/10/05 01:03:16;;;;;;;8.60;6.13;;;15.60;99.90;;;;;;5094831;28;20514;-70
2021/10/05 01:05:43;;;;;;;8.30;6.03;;;15.60;99.90;;;;;;5095048;28;20820;-70
2021/10/05 01:08:10;;;;;;;7.97;6.03;;;15.60;99.90;;;;;;5095224;28;20472;-70
2021/10/05 01:10:37;;;;;;;10.10;5.57;;;15.60;99.90;;;;;;5094920;28;20857;-70
2021/10/05 01:13:03;;;;;;;8.00;5.37;;;15.60;99.90;;;;;;5094806;28;20488;-70
2021/10/05 01:15:30;;;;;;;8.43;6.10;;;15.60;99.90;;;;;;5095105;28;20464;-70
2021/10/05 01:17:57;;;;;;;7.40;5.53;;;15.60;99.90;;;;;;5095150;28;20468;-70
2021/10/05 01:20:25;;;;;;;9.53;5.97;;;15.60;99.90;;;;;;5094786;28;20477;-70
2021/10/05 01:22:53;;;;;;;9.50;4.80;;;15.60;99.90;;;;;;5094532;28;20474;-70
2021/10/05 01:25:20;;;;;;;8.40;4.97;;;15.60;99.90;;;;;;5095101;28;20770;-70
2021/10/05 01:27:52;;;;;;;9.93;4.07;;;15.60;99.90;;;;;;5094877;28;20791;-70
2021/10/05 01:30:20;;;;;;;12.30;3.97;;;15.60;99.90;;;;;;5094885;28;20470;-70
2021/10/05 01:32:48;;;;;;;6.27;4.07;;;15.60;99.90;;;;;;5095145;28;20458;-70
2021/10/05 01:35:18;;;;;;;7.10;4.13;;;15.60;99.90;;;;;;5094768;28;20457;-70
2021/10/05 01:37:45;;;;;;;5.93;3.90;;;15.60;99.90;;;;;;5094067;28;20457;-70
2021/10/05 01:40:13;;;;;;;6.50;3.63;;;15.60;99.90;;;;;;5094752;28;20480;-70
2021/10/05 01:42:43;;;;;;;6.70;3.50;;;15.60;99.90;;;;;;5094721;28;20487;-70
2021/10/05 01:45:10;;;;;;;6.70;4.00;;;15.60;99.90;;;;;;5095168;28;20469;-70
2021/10/05 01:47:39;;;;;;;6.83;3.73;;;15.60;99.90;;;;;;5094768;28;20850;-70
2021/10/05 01:50:07;;;;;;;8.30;3.90;;;15.60;99.90;;;;;;5094535;28;20838;-70
2021/10/05 01:52:33;;;;;;;5.10;4.10;;;15.60;99.90;;;;;;5094379;28;20462;-70
2021/10/05 01:55:00;;;;;;;5.63;3.70;;;15.60;99.90;;;;;;5094399;28;20458;-70
2021/10/05 01:57:28;;;;;;;6.10;3.67;;;15.60;99.90;;;;;;5094634;28;20464;-70
2021/10/05 01:59:55;;;;;;;3.70;2.80;;;15.60;99.90;;;;;;5094582;28;20483;-70
2021/10/05 02:02:21;;;;;;;5.40;3.17;;;15.60;99.90;;;;;;5095279;28;20835;-70
2021/10/05 02:04:48;;;;;;;3.67;2.83;;;15.60;99.90;;;;;;5098280;28;20449;-70
2021/10/05 02:07:15;;;;;;;5.40;3.17;;;15.60;99.90;;;;;;5098261;28;20461;-70
2021/10/05 02:09:47;;;;;;;5.30;3.43;;;15.60;99.90;;;;;;5098564;28;20465;-70
2021/10/05 02:12:17;;;;;;;6.80;3.00;;;15.60;99.90;;;;;;5098352;28;20491;-70
2021/10/05 02:14:46;;;;;;;9.00;4.13;;;15.60;99.90;;;;;;5098154;28;20457;-70
2021/10/05 02:17:13;;;;;;;4.60;3.40;;;15.50;99.90;;;;;;5098329;28;20520;-69
2021/10/05 02:19:40;;;;;;;5.53;3.13;;;15.50;99.90;;;;;;5098372;28;20461;-69
2021/10/05 02:22:09;;;;;;;4.33;3.27;;;15.50;99.90;;;;;;5098060;28;20519;-69
2021/10/05 02:24:42;;;;;;;5.20;3.47;;;15.50;99.90;;;;;;5098483;28;20452;-69
2021/10/05 02:27:10;;;;;;;4.53;3.40;;;15.50;99.90;;;;;;5097967;28;20426;-69
2021/10/05 02:29:37;;;;;;;7.60;3.73;;;15.50;99.90;;;;;;5098422;28;20457;-69
2021/10/05 02:32:06;;;;;;;5.53;3.43;;;15.50;99.90;;;;;;5098157;28;20515;-70
2021/10/05 02:34:33;;;;;;;5.07;3.70;;;15.50;99.90;;;;;;5097826;28;20457;-69
2021/10/05 02:37:00;;;;;;;7.80;4.13;;;15.50;99.90;;;;;;5098028;28;20950;-69
2021/10/05 02:39:27;;;;;;;6.20;3.57;;;15.40;99.90;;;;;;5098487;28;20466;-69
2021/10/05 02:41:53;;;;;;;4.67;3.27;;;15.40;99.90;;;;;;5098312;28;20465;-69
2021/10/05 02:44:20;;;;;;;5.57;3.63;;;15.40;99.90;;;;;;5098878;28;20465;-69
2021/10/05 02:46:47;;;;;;;8.60;3.30;;;15.40;99.90;;;;;;5098927;28;20465;-69
2021/10/05 02:49:16;;;;;;;5.83;3.83;;;15.40;99.90;;;;;;5098175;28;20495;-69
2021/10/05 02:51:43;;;;;;;4.03;3.63;;;15.40;99.90;;;;;;5098230;28;20562;-69
2021/10/05 02:54:09;;;;;;;7.70;4.10;;;15.40;99.90;;;;;;5098271;28;20454;-69
2021/10/05 02:56:36;;;;;;;7.57;3.77;;;15.40;99.90;;;;;;5097826;28;20457;-69
2021/10/05 02:59:03;;;;;;;3.77;3.03;;;15.30;99.90;;;;;;5097389;28;20923;-70
2021/10/05 03:01:30;;;;;;;4.90;2.97;;;15.30;99.90;;;;;;5097505;28;20458;-69
2021/10/05 03:03:57;;;;;;;6.23;3.23;;;15.30;99.90;;;;;;5097188;28;20946;-69
2021/10/05 03:06:25;;;;;;;5.10;2.73;;;15.30;99.90;;;;;;5097474;28;20461;-69
2021/10/05 03:08:54;;;;;;;3.07;2.67;;;15.30;99.90;;;;;;5097548;28;20466;-69
2021/10/05 03:11:21;;;;;;;4.83;2.40;;;15.30;99.90;;;;;;5096979;28;20470;-69
2021/10/05 03:13:47;;;;;;;6.93;3.40;;;15.30;99.90;;;;;;5096899;28;20784;-69
2021/10/05 03:16:14;;;;;;;6.93;2.80;;;15.40;99.90;;;;;;5097222;28;20461;-69
2021/10/05 03:18:42;;;;;;;3.00;2.30;;;15.40;99.90;;;;;;5097050;28;20460;-69
2021/10/05 03:21:08;;;;;;;8.27;2.43;;;15.40;99.90;;;;;;5097500;28;20489;-69
2021/10/05 03:23:36;;;;;;;2.80;2.23;;;15.40;99.90;;;;;;5096773;28;20539;-69
2021/10/05 03:26:04;;;;;;;8.83;2.30;;;15.40;99.90;;;;;;5097141;28;20465;-69
2021/10/05 03:28:31;;;;;;;5.30;1.93;;;15.30;99.90;;;;;;5096945;28;20548;-69
2021/10/05 03:30:59;;;;;;;5.60;2.20;;;15.30;99.90;;;;;;5096500;28;20960;-69
2021/10/05 03:33:25;;;;;;;3.47;1.70;;;15.30;99.90;;;;;;5096953;28;20958;-69
2021/10/05 03:35:52;;;;;;;2.43;2.10;;;15.30;99.90;;;;;;5096643;28;20454;-69
2021/10/05 03:38:19;;;;;;;4.63;1.80;;;15.20;99.90;;;;;;5096488;28;20458;-69
2021/10/05 03:40:48;;;;;;;8.90;2.23;;;15.20;99.90;;;;;;5096772;28;20462;-69
2021/10/05 03:43:14;;;;;;;3.83;1.50;;;15.20;99.90;;;;;;5096716;28;20523;-69
2021/10/05 03:45:41;;;;;;;4.40;2.03;;;15.20;99.90;;;;;;5096201;28;20942;-69
2021/10/05 03:48:08;;;;;;;6.27;1.90;;;15.20;99.90;;;;;;5096368;28;20488;-69
2021/10/05 03:50:35;;;;;;;4.23;1.53;;;15.20;99.90;;;;;;5096263;28;20466;-69
2021/10/05 03:53:01;;;;;;;3.83;1.60;;;15.20;99.90;;;;;;5096356;28;20457;-69
2021/10/05 03:55:28;;;;;;;5.23;1.57;;;15.20;99.90;;;;;;5096253;28;20462;-69
2021/10/05 03:57:56;;;;;;;4.70;1.90;;;15.10;99.90;;;;;;5096441;28;20453;-69
2021/10/05 04:00:25;;;;;;;3.43;1.70;;;15.10;99.90;;;;;;5096183;28;20454;-69
2021/10/05 04:02:56;;;;;;;13.40;1.60;;;15.10;99.90;;;;;;5096283;28;20454;-69
2021/10/05 04:05:23;;;;;;;5.63;1.80;;;15.10;99.90;;;;;;5096296;28;20898;-69
2021/10/05 04:07:50;;;;;;;6.30;2.03;;;15.10;99.90;;;;;;5096067;28;20806;-69
2021/10/05 04:10:17;;;;;;;3.90;1.73;;;15.10;99.90;;;;;;5095997;28;20515;-69
2021/10/05 04:12:43;;;;;;;4.10;1.43;;;15.10;99.90;;;;;;5095668;28;20538;-69
2021/10/05 04:15:11;;;;;;;4.07;2.03;;;15.10;99.90;;;;;;5096210;28;20458;-69
2021/10/05 04:17:38;;;;;;;4.00;1.73;;;15.10;99.90;;;;;;5096176;28;20454;-69
2021/10/05 04:20:06;;;;;;;5.60;1.90;;;15.10;99.90;;;;;;5095549;28;20453;-69
2021/10/05 04:22:33;;;;;;;7.70;2.03;;;15.10;99.90;;;;;;5095259;28;20965;-69
2021/10/05 04:24:59;;;;;;;4.07;2.00;;;15.10;99.90;;;;;;5096046;28;20450;-69
2021/10/05 04:27:27;;;;;;;5.10;2.60;;;15.10;99.90;;;;;;5095737;28;20834;-69
2021/10/05 04:29:53;;;;;;;4.83;1.90;;;15.10;99.90;;;;;;5095965;28;20454;-69
2021/10/05 04:32:21;;;;;;;2.97;1.60;;;15.10;99.90;;;;;;5095241;28;20473;-69
2021/10/05 04:34:48;;;;;;;3.20;1.57;;;15.00;99.90;;;;;;5095712;28;20471;-69
2021/10/05 04:37:18;;;;;;;4.47;1.77;;;15.00;99.90;;;;;;5095599;28;20453;-69
2021/10/05 04:39:44;;;;;;;4.23;2.13;;;15.00;99.90;;;;;;5095397;28;20486;-69
2021/10/05 04:42:11;;;;;;;5.20;1.80;;;15.00;99.90;;;;;;5095611;28;20450;-69
2021/10/05 04:44:40;;;;;;;4.70;1.80;;;15.00;99.90;;;;;;5095497;28;20457;-69
2021/10/05 04:47:07;;;;;;;6.70;1.83;;;14.90;99.90;;;;;;5095492;28;20457;-69
2021/10/05 04:49:35;;;;;;;4.33;1.70;;;14.90;99.90;;;;;;5095304;28;20454;-69
2021/10/05 04:52:02;;;;;;;5.57;1.60;;;14.90;99.90;;;;;;5095101;28;20504;-69
2021/10/05 04:54:30;;;;;;;4.17;2.43;;;14.90;99.90;;;;;;5095326;28;20809;-70
2021/10/05 04:56:57;;;;;;;45.40;31.07;;;14.90;99.90;;;;;;5095197;28;20476;-70
2021/10/05 04:59:23;;;;;;;6.63;4.00;;;14.90;99.90;;;;;;5095240;28;20462;-70
2021/10/05 05:01:50;;;;;;;4.33;2.23;;;14.90;99.90;;;;;;5094865;28;20450;-70
2021/10/05 05:04:17;;;;;;;3.97;2.20;;;14.80;99.90;;;;;;5095403;28;20465;-70
2021/10/05 05:06:46;;;;;;;6.00;2.07;;;14.80;99.90;;;;;;5095080;28;20533;-70
2021/10/05 05:09:12;;;;;;;2.63;1.87;;;14.80;99.90;;;;;;5095106;28;20454;-69
2021/10/05 05:11:39;;;;;;;7.27;2.23;;;14.80;99.90;;;;;;5095901;28;20500;-69
2021/10/05 05:14:07;;;;;;;3.27;2.27;;;14.80;99.90;;;;;;5095487;28;20468;-70
2021/10/05 05:16:34;;;;;;;5.93;2.00;;;14.80;99.90;;;;;;5095214;28;20548;-69
2021/10/05 05:19:01;;;;;;;5.50;2.47;;;14.80;99.90;;;;;;5095280;28;20462;-69
2021/10/05 05:21:28;;;;;;;3.20;2.17;;;14.70;99.90;;;;;;5095131;28;20945;-69
2021/10/05 05:23:56;;;;;;;4.83;2.30;;;14.70;99.90;;;;;;5094875;28;20485;-70
2021/10/05 05:26:23;;;;;;;6.63;2.37;;;14.70;99.90;;;;;;5095508;28;20806;-69
2021/10/05 05:28:50;;;;;;;4.93;4.40;;;14.70;99.90;;;;;;5096050;28;20457;-69
2021/10/05 05:31:17;;;;;;;5.07;3.47;;;14.70;99.90;;;;;;5094888;28;20812;-69
2021/10/05 05:33:44;;;;;;;3.37;2.50;;;14.70;99.90;;;;;;5095369;28;20834;-70
2021/10/05 05:36:10;;;;;;;2.63;2.40;;;14.70;99.90;;;;;;5096595;28;20559;-69
2021/10/05 05:38:37;;;;;;;4.33;3.00;;;14.70;99.90;;;;;;5096152;28;20916;-69
2021/10/05 05:41:05;;;;;;;7.00;3.40;;;14.70;99.90;;;;;;5098429;28;20541;-69
2021/10/05 05:43:32;;;;;;;4.73;3.50;;;14.70;99.90;;;;;;5095679;28;20465;-69
2021/10/05 05:45:59;;;;;;;7.20;3.40;;;14.70;99.90;;;;;;5094892;28;20519;-69
2021/10/05 05:48:26;;;;;;;6.47;2.93;;;14.70;99.90;;;;;;5096179;28;20457;-69
2021/10/05 05:50:52;;;;;;;6.97;2.70;;;14.70;99.90;;;;;;5095003;28;20500;-69
2021/10/05 05:53:19;;;;;;;4.70;3.60;;;14.70;99.90;;;;;;5094700;28;20866;-69
2021/10/05 05:55:46;;;;;;;4.90;3.13;;;14.70;99.90;;;;;;5094326;28;20461;-69
2021/10/05 05:58:16;;;;;;;5.93;2.73;;;14.70;99.90;;;;;;5094450;28;20457;-69
2021/10/05 06:00:43;;;;;;;2.73;2.53;;;14.70;99.90;;;;;;5094384;28;20799;-69
2021/10/05 06:03:10;;;;;;;5.33;3.13;;;14.70;99.90;;;;;;5095114;28;20478;-69
2021/10/05 06:05:38;;;;;;;4.90;3.37;;;14.70;99.90;;;;;;5094004;28;20539;-69
2021/10/05 06:08:05;;;;;;;5.53;2.80;;;14.70;99.90;;;;;;5094656;28;20458;-69
2021/10/05 06:10:32;;;;;;;3.67;3.30;;;14.70;99.90;;;;;;5093919;28;20465;-69
2021/10/05 06:12:59;;;;;;;4.90;2.70;;;14.70;99.90;;;;;;5094271;28;20814;-69
2021/10/05 06:15:27;;;;;;;7.60;3.50;;;14.70;99.90;;;;;;5094047;28;20454;-69
2021/10/05 06:17:54;;;;;;;5.70;3.07;;;14.80;99.90;;;;;;5094404;28;20458;-69
2021/10/05 06:20:22;;;;;;;11.53;4.70;;;14.70;99.90;;;;;;5094287;28;20461;-69
2021/10/05 06:22:50;;;;;;;4.30;3.50;;;14.70;99.90;;;;;;5093610;28;20477;-69
2021/10/05 06:25:19;;;;;;;8.97;3.30;;;14.70;99.90;;;;;;5093892;28;20461;-69
2021/10/05 06:27:47;;;;;;;5.10;3.90;;;14.80;99.90;;;;;;5094150;28;20754;-70
2021/10/05 06:30:15;;;;;;;7.10;3.10;;;14.80;99.90;;;;;;5093922;28;20474;-70
2021/10/05 06:32:46;;;;;;;7.70;3.17;;;14.80;99.90;;;;;;5093959;28;20478;-70
2021/10/05 06:35:13;;;;;;;5.97;3.10;;;14.90;99.90;;;;;;5094049;28;20449;-70
2021/10/05 06:37:40;;;;;;;6.50;4.40;;;14.90;99.90;;;;;;5093767;28;20457;-70
2021/10/05 06:40:08;;;;;;;4.23;3.33;;;14.90;99.90;;;;;;5094116;28;20457;-70
2021/10/05 06:42:36;;;;;;;4.97;3.27;;;14.90;99.90;;;;;;5094098;28;20469;-70
2021/10/05 06:45:04;;;;;;;4.83;3.57;;;15.00;99.90;;;;;;5093765;28;20449;-70
2021/10/05 06:47:31;;;;;;;4.53;3.47;;;15.10;99.90;;;;;;5093999;28;20458;-70
2021/10/05 06:50:00;;;;;;;4.73;4.03;;;15.10;99.90;;;;;;5095312;28;20454;-70
2021/10/05 06:52:27;;;;;;;5.13;3.43;;;15.10;99.90;;;;;;5097201;28;20978;-70
2021/10/05 06:54:54;;;;;;;9.20;3.83;;;15.20;99.90;;;;;;5097363;28;20461;-71
2021/10/05 06:57:21;;;;;;;5.80;3.90;;;15.20;99.90;;;;;;5097895;28;20461;-70
2021/10/05 06:59:47;;;;;;;9.40;4.90;;;15.20;99.90;;;;;;5097170;28;20468;-71
2021/10/05 07:02:14;;;;;;;7.23;4.27;;;15.30;99.90;;;;;;5096924;28;20457;-71
2021/10/05 07:04:44;;;;;;;6.10;3.73;;;15.30;99.90;;;;;;5097372;28;20465;-72
2021/10/05 07:07:12;;;;;;;6.23;4.10;;;15.30;99.90;;;;;;5097017;28;20471;-71
2021/10/05 07:09:39;;;;;;;4.67;4.20;;;15.30;99.90;;;;;;5097134;28;20535;-71
2021/10/05 07:12:06;;;;;;;4.97;4.47;;;15.30;99.90;;;;;;5096966;28;20485;-70
2021/10/05 07:14:33;;;;;;;8.63;4.40;;;15.40;99.90;;;;;;5097174;28;20795;-71
2021/10/05 07:17:00;;;;;;;7.27;4.07;;;15.40;99.90;;;;;;5097131;28;20457;-71
2021/10/05 07:19:27;;;;;;;7.33;4.20;;;15.50;99.90;;;;;;5096844;28;20460;-71
2021/10/05 07:21:54;;;;;;;6.17;4.80;;;15.50;99.90;;;;;;5096323;28;20824;-71
2021/10/05 07:24:22;;;;;;;6.10;4.90;;;15.50;99.90;;;;;;5097161;28;20446;-71
2021/10/05 07:26:49;;;;;;;8.30;4.30;;;15.50;99.90;;;;;;5096434;28;20454;-71
2021/10/05 07:29:15;;;;;;;6.60;4.97;;;15.60;99.90;;;;;;5096432;28;20473;-71
2021/10/05 07:31:42;;;;;;;5.50;4.83;;;15.60;99.90;;;;;;5096777;28;20468;-71
2021/10/05 07:34:09;;;;;;;10.27;4.93;;;15.60;99.90;;;;;;5096733;28;20457;-71
2021/10/05 07:36:36;;;;;;;8.60;4.83;;;15.60;99.90;;;;;;5096847;28;20457;-71
2021/10/05 07:39:04;;;;;;;7.37;5.27;;;15.50;99.90;;;;;;5096698;28;20457;-71
2021/10/05 07:41:32;;;;;;;4.60;3.80;;;15.50;99.90;;;;;;5096778;28;20556;-71
2021/10/05 07:43:59;;;;;;;9.50;5.43;;;15.50;99.90;;;;;;5096436;28;20511;-71
2021/10/05 07:46:26;;;;;;;10.80;5.80;;;15.50;99.90;;;;;;5096295;28;20458;-74
2021/10/05 07:48:52;;;;;;;6.60;4.90;;;15.60;99.90;;;;;;5096445;28;20795;-71
2021/10/05 07:51:19;;;;;;;8.87;5.70;;;15.60;99.90;;;;;;5096488;28;20458;-71
2021/10/05 07:53:46;;;;;;;8.97;5.90;;;15.60;99.90;;;;;;5096415;28;20497;-73
2021/10/05 07:56:13;;;;;;;12.13;6.70;;;15.50;99.90;;;;;;5096253;28;20460;-70
2021/10/05 07:58:44;;;;;;;13.47;7.33;;;15.60;99.90;;;;;;5096240;28;20460;-71
2021/10/05 08:01:11;;;;;;;8.97;7.03;;;15.60;99.90;;;;;;5096063;28;20465;-71
2021/10/05 08:03:37;;;;;;;9.83;7.43;;;15.60;99.90;;;;;;5096185;28;20450;-71
2021/10/05 08:06:04;;;;;;;8.70;6.60;;;15.60;99.90;;;;;;5096215;28;20485;-71
2021/10/05 08:08:31;;;;;;;10.30;8.80;;;15.60;99.90;;;;;;5096086;28;20829;-71
2021/10/05 08:10:57;;;;;;;10.80;8.67;;;15.60;99.90;;;;;;5095881;28;20468;-71
2021/10/05 08:13:24;;;;;;;14.00;8.27;;;15.60;99.90;;;;;;5096130;28;20482;-71
2021/10/05 08:15:52;;;;;;;11.43;8.40;;;15.60;99.90;;;;;;5095581;28;20454;-71
2021/10/05 08:18:19;;;;;;;11.30;8.90;;;15.60;99.90;;;;;;5095791;28;21076;-71
2021/10/05 08:20:47;;;;;;;12.83;8.53;;;15.60;99.90;;;;;;5096272;28;20464;-71
2021/10/05 08:23:14;;;;;;;20.90;10.40;;;15.60;99.90;;;;;;5095436;28;20489;-71
2021/10/05 08:25:43;;;;;;;16.77;9.70;;;15.60;99.90;;;;;;5095560;28;20477;-71
2021/10/05 08:28:09;;;;;;;11.47;9.50;;;15.70;99.90;;;;;;5096029;28;20493;-71
2021/10/05 08:30:36;;;;;;;11.87;9.70;;;15.70;99.90;;;;;;5095534;28;20462;-71
2021/10/05 08:33:04;;;;;;;12.87;10.37;;;15.70;99.90;;;;;;5095532;28;20580;-71
2021/10/05 08:35:31;;;;;;;14.00;10.17;;;15.60;99.90;;;;;;5095715;28;20461;-71
2021/10/05 08:37:59;;;;;;;11.03;9.87;;;15.70;99.90;;;;;;5098302;28;20768;-71
2021/10/05 08:40:26;;;;;;;13.67;10.53;;;15.70;99.90;;;;;;5095415;28;20842;-71
2021/10/05 08:42:53;;;;;;;13.07;11.00;;;15.70;99.90;;;;;;5096275;28;20468;-71
2021/10/05 08:45:19;;;;;;;12.47;10.27;;;15.70;99.90;;;;;;5095356;28;20464;-71
2021/10/05 08:47:47;;;;;;;15.50;11.87;;;15.70;99.90;;;;;;5095445;28;20469;-71
2021/10/05 08:50:18;;;;;;;14.60;11.90;;;15.80;99.90;;;;;;5095240;28;20454;-71
2021/10/05 08:52:45;;;;;;;16.20;13.40;;;15.80;99.90;;;;;;5095300;28;20504;-70
2021/10/05 08:55:15;;;;;;;14.23;12.63;;;15.80;99.90;;;;;;5095301;28;20535;-71
2021/10/05 08:57:42;;;;;;;15.30;13.40;;;15.90;99.90;;;;;;5095816;28;20826;-71
2021/10/05 09:00:10;;;;;;;18.23;13.60;;;15.80;99.90;;;;;;5095159;28;20789;-71
2021/10/05 09:02:45;;;;;;;16.77;14.17;;;15.90;99.90;;;;;;5095784;28;20538;-71
2021/10/05 09:05:15;;;;;;;15.67;12.30;;;15.90;99.90;;;;;;5095450;28;20471;-71
2021/10/05 09:07:48;;;;;;;16.73;13.73;;;15.90;99.90;;;;;;5094722;28;20465;-71
2021/10/05 09:10:17;;;;;;;18.07;13.50;;;15.90;99.90;;;;;;5096318;28;20449;-71
2021/10/05 09:12:44;;;;;;;16.30;14.00;;;15.90;99.90;;;;;;5094056;28;20484;-71
2021/10/05 09:15:13;;;;;;;17.23;14.50;;;16.00;99.90;;;;;;5094928;28;20461;-69
2021/10/05 09:17:40;;;;;;;20.90;16.10;;;16.00;99.90;;;;;;5094907;28;20477;-71
2021/10/05 09:20:21;;;;;;;18.80;15.43;;;16.00;99.90;;;;;;5094851;28;20526;-71
2021/10/05 09:22:57;;;;;;;17.83;13.67;;;16.10;99.90;;;;;;5094445;28;20484;-71
2021/10/05 09:25:28;;;;;;;15.67;14.00;;;16.10;99.90;;;;;;5094493;28;20884;-71
2021/10/05 09:27:55;;;;;;;17.50;15.40;;;16.10;99.90;;;;;;5094800;28;20847;-71
2021/10/05 09:30:22;;;;;;;16.10;13.57;;;16.10;99.90;;;;;;5094624;28;20450;-69
2021/10/05 09:32:59;;;;;;;22.33;14.60;;;16.10;99.90;;;;;;5094662;28;20473;-70
2021/10/05 09:35:39;;;;;;;18.87;15.17;;;16.10;99.90;;;;;;5094802;28;20506;-70
2021/10/05 09:38:12;;;;;;;18.77;14.60;;;16.10;99.90;;;;;;5094563;28;20446;-70
2021/10/05 09:40:39;;;;;;;19.90;14.47;;;16.20;99.90;;;;;;5094496;28;20438;-69
2021/10/05 09:43:18;;;;;;;20.80;15.50;;;16.10;99.90;;;;;;5094421;28;20528;-70
2021/10/05 09:45:45;;;;;;;19.63;16.13;;;16.20;99.90;;;;;;5094460;28;20441;-69
2021/10/05 09:48:12;;;;;;;18.90;16.90;;;16.20;99.90;;;;;;5094702;28;20523;-72
2021/10/05 09:50:40;;;;;;;19.27;15.23;;;16.20;99.90;;;;;;5094274;28;20468;-71
2021/10/05 09:53:10;;;;;;;18.47;15.57;;;16.20;99.90;;;;;;5094524;28;20565;-71
2021/10/05 09:55:39;;;;;;;20.77;17.27;;;16.30;99.90;;;;;;5094475;28;20918;-71
2021/10/05 09:58:06;;;;;;;21.57;15.93;;;16.20;99.90;;;;;;5094491;28;20466;-71
2021/10/05 10:00:36;;;;;;;19.40;14.73;;;16.30;99.90;;;;;;5093968;28;20461;-71
2021/10/05 10:03:06;;;;;;;19.30;15.37;;;16.30;99.90;;;;;;5094573;28;20465;-71
2021/10/05 10:05:36;;;;;;;20.07;16.20;;;16.40;99.90;;;;;;5094476;28;20442;-71
2021/10/05 10:08:06;;;;;;;17.80;15.20;;;16.40;99.90;;;;;;5094181;28;20472;-70
2021/10/05 10:10:36;;;;;;;18.77;16.73;;;16.40;99.90;;;;;;5094265;28;20466;-70
2021/10/05 10:13:05;;;;;;;19.10;16.10;;;16.40;99.90;;;;;;5094283;28;20489;-71
2021/10/05 10:15:34;;;;;;;27.17;16.90;;;16.40;99.90;;;;;;5094205;28;20538;-70
2021/10/05 10:18:08;;;;;;;20.13;16.50;;;16.40;99.90;;;;;;5093745;28;20454;-71
2021/10/05 10:20:36;;;;;;;17.47;15.63;;;16.40;99.90;;;;;;5094249;28;20468;-70
2021/10/05 10:23:03;;;;;;;20.10;17.20;;;16.40;99.90;;;;;;5094351;28;20477;-72
2021/10/05 10:25:33;;;;;;;20.67;17.70;;;16.40;99.90;;;;;;5098067;28;20468;-70
2021/10/05 10:28:12;;;;;;;20.33;17.90;;;16.40;99.90;;;;;;5098944;28;20454;-70
2021/10/05 10:30:49;;;;;;;23.23;17.40;;;16.40;99.90;;;;;;5097669;28;20891;-70
2021/10/05 10:33:16;;;;;;;23.20;18.03;;;16.50;99.90;;;;;;5098039;28;20476;-70
2021/10/05 10:35:49;;;;;;;20.70;18.03;;;16.50;99.90;;;;;;5098043;28;20465;-71
2021/10/05 10:38:23;;;;;;;29.13;18.60;;;16.50;99.90;;;;;;5098219;28;20493;-71
2021/10/05 10:40:51;;;;;;;23.73;18.20;;;16.50;99.90;;;;;;5097612;28;20473;-70
2021/10/05 10:43:20;;;;;;;27.80;20.10;;;16.60;99.90;;;;;;5098038;28;20487;-71
2021/10/05 10:45:50;;;;;;;37.87;21.80;;;16.60;99.90;;;;;;5098066;28;20489;-72
2021/10/05 10:48:31;;;;;;;49.67;22.20;;;16.60;99.90;;;;;;5099001;28;20945;-72
2021/10/05 10:51:01;;;;;;;23.57;19.60;;;16.60;99.90;;;;;;5097578;28;20462;-69
2021/10/05 10:53:37;;;;;;;25.87;20.10;;;16.60;99.90;;;;;;5097187;28;20863;-70
2021/10/05 10:56:06;;;;;;;26.63;22.17;;;16.60;99.90;;;;;;5097074;28;20893;-71
2021/10/05 10:58:37;;;;;;;29.53;20.50;;;16.70;99.90;;;;;;5096723;28;20461;-71
2021/10/05 11:01:04;;;;;;;29.00;22.00;;;16.70;99.90;;;;;;5097412;28;20438;-71
2021/10/05 11:03:31;;;;;;;25.47;20.50;;;16.70;99.90;;;;;;5097225;28;20458;-71
2021/10/05 11:05:58;;;;;;;35.73;22.33;;;16.80;99.90;;;;;;5097271;28;20532;-71
2021/10/05 11:08:24;;;;;;;26.33;21.90;;;16.80;99.90;;;;;;5096610;28;20465;-71
2021/10/05 11:10:51;;;;;;;27.47;22.10;;;16.80;99.90;;;;;;5097770;28;20919;-71
2021/10/05 11:13:20;;;;;;;27.47;22.40;;;16.80;99.90;;;;;;5097023;28;20493;-71
2021/10/05 11:15:49;;;;;;;30.23;23.40;;;16.90;99.90;;;;;;5097418;28;20462;-71
2021/10/05 11:18:17;;;;;;;29.63;24.00;;;16.90;99.90;;;;;;5097699;28;20511;-75
2021/10/05 11:20:51;;;;;;;29.43;23.10;;;16.90;99.90;;;;;;5096848;28;20465;-71
2021/10/05 11:23:20;;;;;;;30.93;23.57;;;16.90;99.90;;;;;;5096698;28;20485;-71
2021/10/05 11:25:47;;;;;;;28.83;22.90;;;16.90;99.90;;;;;;5096704;28;20457;-71
2021/10/05 11:28:15;;;;;;;31.20;23.47;;;16.90;99.90;;;;;;5096276;28;20497;-70
2021/10/05 11:30:59;;;;;;;29.10;24.53;;;16.90;99.90;;;;;;5096642;28;20594;-71
2021/10/05 11:33:29;;;;;;;30.17;23.47;;;16.90;99.90;;;;;;5096185;28;20462;-71
2021/10/05 11:35:58;;;;;;;31.10;24.60;;;16.90;99.90;;;;;;5095973;28;20458;-71
2021/10/05 11:38:25;;;;;;;32.23;25.03;;;16.80;99.90;;;;;;5096278;28;20446;-71
2021/10/05 11:40:55;;;;;;;36.20;30.57;;;16.80;99.90;;;;;;5096612;28;20458;-71
2021/10/05 11:43:32;;;;;;;39.23;25.93;;;16.80;99.90;;;;;;5096019;28;20481;-71
2021/10/05 11:46:09;;;;;;;30.90;25.90;;;16.80;99.90;;;;;;5096360;28;20915;-71
2021/10/05 11:48:41;;;;;;;30.10;25.33;;;16.70;99.90;;;;;;5096022;28;20449;-71
2021/10/05 11:51:08;;;;;;;29.50;24.97;;;16.70;99.90;;;;;;5096064;28;20454;-71
2021/10/05 11:53:35;;;;;;;30.90;25.40;;;16.70;99.90;;;;;;5095721;28;20513;-71
2021/10/05 11:56:07;;;;;;;31.90;24.40;;;16.70;99.90;;;;;;5096212;28;20454;-71
2021/10/05 11:58:48;;;;;;;30.43;23.83;;;16.80;99.90;;;;;;5096285;28;20465;-71
2021/10/05 12:01:21;;;;;;;34.20;24.87;;;16.80;99.90;;;;;;5096252;28;20519;-71
2021/10/05 12:03:50;;;;;;;33.13;26.20;;;16.80;99.90;;;;;;5096100;28;20478;-71
2021/10/05 12:06:30;;;;;;;30.90;26.20;;;16.80;99.90;;;;;;5095822;28;20467;-71
2021/10/05 12:08:58;;;;;;;29.37;24.57;;;16.80;99.90;;;;;;5095831;28;20457;-71
2021/10/05 12:11:35;;;;;;;32.87;25.20;;;16.80;99.90;;;;;;5096575;28;20458;-71
2021/10/05 12:14:03;;;;;;;33.43;25.77;;;16.80;99.90;;;;;;5096631;28;20461;-70
2021/10/05 12:16:31;;;;;;;34.50;25.70;;;16.70;99.90;;;;;;5095884;28;20899;-70
2021/10/05 12:18:58;;;;;;;34.07;26.13;;;16.70;99.90;;;;;;5095789;28;20526;-70
2021/10/05 12:21:26;;;;;;;33.07;25.70;;;16.70;99.90;;;;;;5096125;28;20564;-70
2021/10/05 12:23:56;;;;;;;35.97;26.03;;;16.60;99.90;;;;;;5095452;28;20590;-70
2021/10/05 12:26:23;;;;;;;42.77;31.53;;;16.60;99.90;;;;;;5095895;28;20488;-70
2021/10/05 12:29:03;;;;;;;37.60;27.40;;;16.60;99.90;;;;;;5095604;28;20465;-70
2021/10/05 12:31:33;;;;;;;37.80;28.07;;;16.50;99.90;;;;;;5095078;28;20445;-71
2021/10/05 12:34:01;;;;;;;37.70;26.43;;;16.40;99.90;;;;;;5095211;28;20484;-71
2021/10/05 12:36:30;;;;;;;46.87;34.27;;;16.30;99.90;;;;;;5095257;28;20761;-70
2021/10/05 12:38:56;;;;;;;39.10;27.83;;;16.30;99.90;;;;;;5095518;28;20457;-71
2021/10/05 12:41:23;;;;;;;42.37;28.70;;;16.30;99.90;;;;;;5094925;28;20464;-71
2021/10/05 12:43:50;;;;;;;39.50;27.07;;;16.20;99.90;;;;;;5095597;28;20458;-70
2021/10/05 12:46:18;;;;;;;40.70;28.73;;;16.20;99.90;;;;;;5096438;28;20460;-71